createdAt,value
2022-10-28T00:01:22.556Z,101704.03
2022-10-28T00:03:49.663Z,101697.22
2022-10-28T00:06:15.982Z,101701.78
2022-10-28T00:08:42.379Z,101698.50
2022-10-28T00:11:08.622Z,101698.72
2022-10-28T00:13:35.137Z,101698.09
2022-10-28T00:16:01.396Z,101698.94
2022-10-28T00:18:27.998Z,101701.03
2022-10-28T00:20:54.321Z,101700.22
2022-10-28T00:23:21.017Z,101696.84
2022-10-28T00:25:47.356Z,101702.47
2022-10-28T00:28:15.333Z,101702.75
2022-10-28T00:30:41.608Z,101697.56
2022-10-28T00:33:09.877Z,101688.63
2022-10-28T00:35:36.349Z,101690.50
2022-10-28T00:38:02.682Z,101681.56
2022-10-28T00:40:30.572Z,101686.34
2022-10-28T00:42:56.924Z,101684.72
2022-10-28T00:45:23.314Z,101674.97
2022-10-28T00:47:49.653Z,101675.19
2022-10-28T00:50:15.949Z,101672.47
2022-10-28T00:52:42.216Z,101673.53
2022-10-28T00:55:08.941Z,101669.19
2022-10-28T00:57:35.220Z,101666.94
2022-10-28T01:00:01.502Z,101672.34
2022-10-28T01:02:27.919Z,101672.56
2022-10-28T01:04:55.561Z,101664.44
2022-10-28T01:07:21.940Z,101659.25
2022-10-28T01:09:49.914Z,101658.47
2022-10-28T01:12:16.264Z,101653.06
2022-10-28T01:14:42.955Z,101662.19
2022-10-28T01:17:09.489Z,101672.19
2022-10-28T01:19:37.256Z,101663.47
2022-10-28T01:22:03.696Z,101664.53
2022-10-28T01:24:30.052Z,101668.06
2022-10-28T01:26:56.533Z,101662.25
2022-10-28T01:29:22.865Z,101654.78
2022-10-28T01:31:49.721Z,101652.28
2022-10-28T01:34:16.057Z,101653.34
2022-10-28T01:36:42.829Z,101649.81
2022-10-28T01:39:09.349Z,101648.75
2022-10-28T01:41:36.174Z,101639.22
2022-10-28T01:44:02.496Z,101639.22
2022-10-28T01:46:28.846Z,101639.22
2022-10-28T01:48:55.470Z,101636.75
2022-10-28T01:51:21.736Z,101633.25
2022-10-28T01:53:48.076Z,101636.75
2022-10-28T01:56:14.357Z,101627.00
2022-10-28T01:58:41.495Z,101622.66
2022-10-28T02:01:08.031Z,101628.28
2022-10-28T02:03:34.526Z,101628.28
2022-10-28T02:06:00.808Z,101629.13
2022-10-28T02:08:27.157Z,101627.69
2022-10-28T02:10:53.441Z,101625.81
2022-10-28T02:13:20.048Z,101626.63
2022-10-28T02:15:46.386Z,101633.31
2022-10-28T02:18:12.838Z,101626.03
2022-10-28T02:20:39.140Z,101627.91
2022-10-28T02:23:05.680Z,101623.56
2022-10-28T02:25:32.097Z,101636.22
2022-10-28T02:27:58.479Z,101629.78
2022-10-28T02:30:24.940Z,101627.06
2022-10-28T02:32:51.689Z,101621.69
2022-10-28T02:35:18.354Z,101622.97
2022-10-28T02:37:44.858Z,101621.09
2022-10-28T02:40:11.164Z,101610.28
2022-10-28T02:42:37.457Z,101613.00
2022-10-28T02:45:03.972Z,101604.06
2022-10-28T02:47:30.234Z,101609.44
2022-10-28T02:49:56.460Z,101613.22
2022-10-28T02:52:22.761Z,101613.22
2022-10-28T02:54:49.166Z,101615.91
2022-10-28T02:57:15.468Z,101615.06
2022-10-28T02:59:41.816Z,101611.78
2022-10-28T03:02:08.316Z,101615.28
2022-10-28T03:04:34.698Z,101607.41
2022-10-28T03:07:01.103Z,101609.31
2022-10-28T03:09:27.505Z,101609.53
2022-10-28T03:11:53.847Z,101606.59
2022-10-28T03:14:20.143Z,101611.38
2022-10-28T03:16:46.816Z,101601.44
2022-10-28T03:19:13.075Z,101604.97
2022-10-28T03:21:39.377Z,101597.88
2022-10-28T03:24:06.092Z,101614.09
2022-10-28T03:26:32.461Z,101605.41
2022-10-28T03:28:58.978Z,101602.69
2022-10-28T03:31:25.389Z,101604.56
2022-10-28T03:33:51.761Z,101599.16
2022-10-28T03:36:18.018Z,101608.31
2022-10-28T03:38:44.424Z,101601.06
2022-10-28T03:41:10.721Z,101601.06
2022-10-28T03:43:36.963Z,101599.16
2022-10-28T03:46:03.453Z,101592.97
2022-10-28T03:48:30.069Z,101595.03
2022-10-28T03:50:56.486Z,101596.94
2022-10-28T03:53:26.296Z,101593.63
2022-10-28T03:55:54.232Z,101601.50
2022-10-28T03:58:20.988Z,101602.34
2022-10-28T04:00:47.433Z,101603.97
2022-10-28T04:03:14.217Z,101597.59
2022-10-28T04:05:40.666Z,101607.34
2022-10-28T04:08:07.213Z,101600.66
2022-10-28T04:10:33.566Z,101592.56
2022-10-28T04:12:59.904Z,101587.16
2022-10-28T04:15:26.219Z,101585.53
2022-10-28T04:17:52.666Z,101581.75
2022-10-28T04:20:18.973Z,101576.16
2022-10-28T04:22:45.251Z,101579.91
2022-10-28T04:25:12.742Z,101572.63
2022-10-28T04:27:39.129Z,101578.03
2022-10-28T04:30:05.436Z,101577.19
2022-10-28T04:32:31.842Z,101583.88
2022-10-28T04:34:58.130Z,101579.28
2022-10-28T04:37:24.433Z,101570.16
2022-10-28T04:39:50.845Z,101569.53
2022-10-28T04:42:17.353Z,101564.75
2022-10-28T04:44:43.993Z,101566.25
2022-10-28T04:47:10.310Z,101566.84
2022-10-28T04:49:38.854Z,101571.44
2022-10-28T04:52:05.317Z,101562.94
2022-10-28T04:54:31.645Z,101565.78
2022-10-28T04:56:58.264Z,101574.56
2022-10-28T04:59:24.556Z,101573.75
2022-10-28T05:01:51.354Z,101572.94
2022-10-28T05:04:17.823Z,101564.84
2022-10-28T05:06:44.317Z,101563.16
2022-10-28T05:09:10.568Z,101564.84
2022-10-28T05:11:36.914Z,101564.22
2022-10-28T05:14:03.195Z,101555.69
2022-10-28T05:16:29.908Z,101551.34
2022-10-28T05:18:56.183Z,101547.66
2022-10-28T05:21:22.658Z,101545.19
2022-10-28T05:23:48.956Z,101551.78
2022-10-28T05:26:15.371Z,101552.84
2022-10-28T05:28:41.710Z,101552.84
2022-10-28T05:31:08.027Z,101550.34
2022-10-28T05:33:34.504Z,101549.31
2022-10-28T05:36:00.848Z,101554.69
2022-10-28T05:38:27.212Z,101553.91
2022-10-28T05:40:53.645Z,101569.03
2022-10-28T05:43:19.911Z,101566.56
2022-10-28T05:45:46.174Z,101577.34
2022-10-28T05:48:12.514Z,101575.91
2022-10-28T05:50:38.890Z,101564.06
2022-10-28T05:53:05.584Z,101562.66
2022-10-28T05:55:31.951Z,101576.72
2022-10-28T05:57:58.448Z,101563.47
2022-10-28T06:00:24.735Z,101559.94
2022-10-28T06:02:52.677Z,101570.53
2022-10-28T06:05:19.236Z,101558.88
2022-10-28T06:07:45.544Z,101565.94
2022-10-28T06:10:13.184Z,101563.47
2022-10-28T06:12:38.084Z,101560.78
2022-10-28T06:15:04.449Z,101557.69
2022-10-28T06:17:30.961Z,101569.91
2022-10-28T06:19:57.265Z,101570.38
2022-10-28T06:22:26.707Z,101571.41
2022-10-28T06:24:53.275Z,101573.88
2022-10-28T06:27:19.750Z,101575.53
2022-10-28T06:29:46.352Z,101580.13
2022-10-28T06:32:13.683Z,101585.28
2022-10-28T06:34:40.074Z,101578.91
2022-10-28T06:37:06.378Z,101583.25
2022-10-28T06:39:32.812Z,101580.97
2022-10-28T06:41:59.396Z,101582.66
2022-10-28T06:44:25.833Z,101576.00
2022-10-28T06:46:53.787Z,101581.63
2022-10-28T06:49:20.259Z,101575.00
2022-10-28T06:51:46.613Z,101581.84
2022-10-28T06:54:13.031Z,101583.31
2022-10-28T06:56:39.415Z,101580.41
2022-10-28T06:59:05.811Z,101592.63
2022-10-28T07:01:32.367Z,101592.84
2022-10-28T07:03:59.798Z,101583.47
2022-10-28T07:06:26.072Z,101588.06
2022-10-28T07:08:53.086Z,101583.88
2022-10-28T07:11:19.787Z,101583.88
2022-10-28T07:13:48.882Z,101574.09
2022-10-28T07:16:15.502Z,101575.31
2022-10-28T07:18:42.014Z,101564.06
2022-10-28T07:21:08.471Z,101568.88
2022-10-28T07:23:36.422Z,101570.31
2022-10-28T07:26:02.741Z,101583.19
2022-10-28T07:28:29.442Z,101587.78
2022-10-28T07:30:55.818Z,101586.72
2022-10-28T07:33:22.256Z,101585.06
2022-10-28T07:35:49.524Z,101582.38
2022-10-28T07:38:15.902Z,101577.78
2022-10-28T07:40:42.293Z,101571.59
2022-10-28T07:43:08.565Z,101583.41
2022-10-28T07:45:34.918Z,101579.69
2022-10-28T07:48:01.244Z,101582.81
2022-10-28T07:50:27.620Z,101581.97
2022-10-28T07:52:54.263Z,101589.00
2022-10-28T07:55:20.767Z,101586.94
2022-10-28T07:57:47.058Z,101584.03
2022-10-28T08:00:13.548Z,101585.06
2022-10-28T08:02:40.837Z,101591.72
2022-10-28T08:05:07.144Z,101590.91
2022-10-28T08:07:36.231Z,101588.78
2022-10-28T08:10:05.070Z,101590.91
2022-10-28T08:12:31.383Z,101589.25
2022-10-28T08:14:57.633Z,101595.47
2022-10-28T08:17:23.991Z,101601.09
2022-10-28T08:19:50.302Z,101589.84
2022-10-28T08:22:16.620Z,101582.59
2022-10-28T08:24:42.867Z,101581.38
2022-10-28T08:27:09.254Z,101584.31
2022-10-28T08:29:35.532Z,101584.31
2022-10-28T08:32:01.781Z,101595.09
2022-10-28T08:34:28.036Z,101590.53
2022-10-28T08:36:54.513Z,101589.06
2022-10-28T08:39:20.877Z,101598.63
2022-10-28T08:41:47.228Z,101599.88
2022-10-28T08:44:13.567Z,101589.69
2022-10-28T08:46:39.866Z,101591.19
2022-10-28T08:49:06.210Z,101580.41
2022-10-28T08:51:32.624Z,101578.53
2022-10-28T08:54:00.464Z,101563.38
2022-10-28T08:56:26.919Z,101559.88
2022-10-28T08:58:53.281Z,101562.75
2022-10-28T09:01:19.762Z,101566.72
2022-10-28T09:03:46.327Z,101575.41
2022-10-28T09:06:12.656Z,101568.94
2022-10-28T09:08:38.945Z,101567.78
2022-10-28T09:11:05.306Z,101560.13
2022-10-28T09:13:31.630Z,101556.59
2022-10-28T09:15:58.011Z,101556.22
2022-10-28T09:18:24.547Z,101551.88
2022-10-28T09:20:51.060Z,101558.06
2022-10-28T09:23:17.359Z,101558.28
2022-10-28T09:25:45.482Z,101554.56
2022-10-28T09:28:11.735Z,101552.09
2022-10-28T09:30:38.416Z,101558.28
2022-10-28T09:33:04.934Z,101558.53
2022-10-28T09:35:31.274Z,101553.16
2022-10-28T09:37:57.640Z,101538.59
2022-10-28T09:40:23.907Z,101544.00
2022-10-28T09:42:50.455Z,101543.16
2022-10-28T09:45:16.691Z,101546.69
2022-10-28T09:47:43.078Z,101549.38
2022-10-28T09:50:09.455Z,101552.09
2022-10-28T09:52:35.865Z,101551.47
2022-10-28T09:55:02.419Z,101552.91
2022-10-28T09:57:28.729Z,101551.25
2022-10-28T09:59:54.993Z,101555.00
2022-10-28T10:02:21.509Z,101541.50
2022-10-28T10:04:47.837Z,101547.50
2022-10-28T10:07:14.180Z,101551.25
2022-10-28T10:09:40.767Z,101554.16
2022-10-28T10:12:07.214Z,101544.00
2022-10-28T10:14:33.536Z,101535.91
2022-10-28T10:16:59.822Z,101541.50
2022-10-28T10:19:26.113Z,101532.38
2022-10-28T10:21:52.429Z,101535.06
2022-10-28T10:24:18.843Z,101526.97
2022-10-28T10:26:45.199Z,101526.16
2022-10-28T10:29:11.459Z,101525.13
2022-10-28T10:31:37.760Z,101528.63
2022-10-28T10:34:04.031Z,101533.22
2022-10-28T10:36:30.403Z,101528.88
2022-10-28T10:38:56.822Z,101528.63
2022-10-28T10:41:24.162Z,101525.13
2022-10-28T10:43:50.567Z,101529.66
2022-10-28T10:46:16.893Z,101535.06
2022-10-28T10:48:43.160Z,101525.91
2022-10-28T10:51:09.988Z,101535.06
2022-10-28T10:53:36.334Z,101534.25
2022-10-28T10:56:02.796Z,101529.66
2022-10-28T10:58:29.188Z,101523.47
2022-10-28T11:00:56.660Z,101512.69
2022-10-28T11:03:23.106Z,101510.78
2022-10-28T11:05:55.119Z,101501.06
2022-10-28T11:08:32.120Z,101493.81
2022-10-28T11:10:58.461Z,101492.75
2022-10-28T11:13:24.998Z,101497.31
2022-10-28T11:15:51.333Z,101507.50
2022-10-28T11:18:17.834Z,101500.84
2022-10-28T11:20:44.139Z,101497.31
2022-10-28T11:23:11.641Z,101495.66
2022-10-28T11:25:38.089Z,101495.66
2022-10-28T11:28:04.775Z,101487.56
2022-10-28T11:30:31.088Z,101480.31
2022-10-28T11:33:14.739Z,101475.72
2022-10-28T11:35:43.981Z,101464.34
2022-10-28T11:38:10.418Z,101468.69
2022-10-28T11:40:36.706Z,101459.75
2022-10-28T11:43:03.075Z,101460.59
2022-10-28T11:45:29.612Z,101456.03
2022-10-28T11:47:56.335Z,101449.81
2022-10-28T11:50:24.308Z,101449.81
2022-10-28T11:52:50.903Z,101449.81
2022-10-28T11:55:17.486Z,101451.66
2022-10-28T11:57:43.818Z,101450.66
2022-10-28T12:00:10.104Z,101454.16
2022-10-28T12:02:36.528Z,101448.75
2022-10-28T12:05:02.945Z,101452.50
2022-10-28T12:07:29.302Z,101446.06
2022-10-28T12:09:55.843Z,101441.72
2022-10-28T12:12:22.272Z,101441.72
2022-10-28T12:14:48.628Z,101439.03
2022-10-28T12:17:14.939Z,101431.97
2022-10-28T12:19:41.234Z,101433.00
2022-10-28T12:22:07.600Z,101433.00
2022-10-28T12:24:34.089Z,101429.44
2022-10-28T12:27:00.664Z,101420.50
2022-10-28T12:29:26.943Z,101421.91
2022-10-28T12:31:53.915Z,101417.94
2022-10-28T12:34:20.436Z,101423.34
2022-10-28T12:36:46.741Z,101421.03
2022-10-28T12:39:13.293Z,101415.16
2022-10-28T12:41:39.770Z,101408.28
2022-10-28T12:44:06.263Z,101401.66
2022-10-28T12:46:32.776Z,101399.53
2022-10-28T12:48:59.074Z,101399.91
2022-10-28T12:51:25.943Z,101395.69
2022-10-28T12:53:52.411Z,101396.88
2022-10-28T12:56:18.724Z,101394.81
2022-10-28T12:58:45.198Z,101399.72
2022-10-28T13:01:11.602Z,101394.47
2022-10-28T13:03:38.329Z,101390.50
2022-10-28T13:06:05.260Z,101389.22
2022-10-28T13:08:31.840Z,101383.59
2022-10-28T13:10:58.520Z,101386.03
2022-10-28T13:13:24.872Z,101382.31
2022-10-28T13:15:51.228Z,101384.53
2022-10-28T13:18:17.812Z,101385.72
2022-10-28T13:20:44.191Z,101385.72
2022-10-28T13:23:10.503Z,101385.50
2022-10-28T13:25:37.079Z,101378.22
2022-10-28T13:34:04.418Z,101378.94
2022-10-28T13:36:30.716Z,101380.38
2022-10-28T13:38:56.943Z,101379.09
2022-10-28T13:41:23.266Z,101380.50
2022-10-28T13:43:49.529Z,101385.41
2022-10-28T13:46:15.860Z,101382.50
2022-10-28T13:48:42.227Z,101373.09
2022-10-28T13:51:08.671Z,101378.28
2022-10-28T13:53:34.957Z,101379.94
2022-10-28T13:56:01.562Z,101378.66
2022-10-28T13:58:27.974Z,101380.28
2022-10-28T14:00:54.936Z,101380.28
2022-10-28T14:03:21.565Z,101372.75
2022-10-28T14:05:48.396Z,101381.47
2022-10-28T14:08:15.151Z,101383.56
2022-10-28T14:10:41.452Z,101376.06
2022-10-28T14:13:08.312Z,101373.16
2022-10-28T14:15:34.824Z,101376.66
2022-10-28T14:18:10.285Z,101367.47
2022-10-28T14:20:42.767Z,101359.16
2022-10-28T14:23:09.043Z,101365.38
2022-10-28T14:25:35.573Z,101363.53
2022-10-28T14:28:01.875Z,101367.88
2022-10-28T14:30:28.146Z,101360.59
2022-10-28T14:32:54.737Z,101357.09
2022-10-28T14:35:21.351Z,101357.66
2022-10-28T14:37:47.577Z,101354.16
2022-10-28T14:40:14.146Z,101357.66
2022-10-28T14:42:40.795Z,101356.84
2022-10-28T14:45:07.155Z,101348.75
2022-10-28T14:47:33.714Z,101355.19
2022-10-28T14:49:59.993Z,101360.81
2022-10-28T14:52:26.676Z,101358.72
2022-10-28T14:54:53.167Z,101362.69
2022-10-28T14:57:19.497Z,101359.16
2022-10-28T14:59:45.935Z,101365.19
2022-10-28T15:02:12.783Z,101362.50
2022-10-28T15:04:39.239Z,101361.63
2022-10-28T15:07:05.782Z,101365.38
2022-10-28T15:09:32.480Z,101369.94
2022-10-28T15:11:58.835Z,101365.19
2022-10-28T15:14:25.222Z,101363.53
2022-10-28T15:16:51.568Z,101366.22
2022-10-28T15:19:17.874Z,101358.91
2022-10-28T15:21:44.176Z,101353.50
2022-10-28T15:24:10.725Z,101356.03
2022-10-28T15:26:37.223Z,101360.97
2022-10-28T15:29:03.512Z,101357.66
2022-10-28T15:31:30.104Z,101353.94
2022-10-28T15:33:56.409Z,101346.63
2022-10-28T15:36:22.845Z,101344.75
2022-10-28T15:38:49.345Z,101344.75
2022-10-28T15:41:15.604Z,101341.22
2022-10-28T15:43:41.857Z,101344.97
2022-10-28T15:46:08.339Z,101342.28
2022-10-28T15:48:34.717Z,101337.09
2022-10-28T15:51:01.053Z,101339.81
2022-10-28T15:53:27.427Z,101334.41
2022-10-28T15:56:07.146Z,101339.81
2022-10-28T15:58:34.022Z,101321.97
2022-10-28T16:01:00.585Z,101334.59
2022-10-28T16:03:27.098Z,101336.50
2022-10-28T16:05:53.748Z,101337.53
2022-10-28T16:08:20.054Z,101331.09
2022-10-28T16:10:46.526Z,101338.16
2022-10-28T16:13:12.797Z,101337.31
2022-10-28T16:15:39.091Z,101340.88
2022-10-28T16:18:05.523Z,101334.84
2022-10-28T16:20:32.138Z,101332.13
2022-10-28T16:22:58.636Z,101336.50
2022-10-28T16:25:25.343Z,101332.75
2022-10-28T16:27:51.925Z,101338.97
2022-10-28T16:30:18.793Z,101331.69
2022-10-28T16:32:45.174Z,101329.59
2022-10-28T16:35:11.457Z,101326.91
2022-10-28T16:37:43.351Z,101333.34
2022-10-28T16:40:30.843Z,101334.19
2022-10-28T16:42:58.117Z,101329.00
2022-10-28T16:45:24.623Z,101337.09
2022-10-28T16:47:51.223Z,101337.09
2022-10-28T16:50:17.665Z,101335.47
2022-10-28T16:52:43.969Z,101335.25
2022-10-28T16:55:10.504Z,101328.19
2022-10-28T16:57:36.785Z,101330.56
2022-10-28T17:00:03.099Z,101333.00
2022-10-28T17:02:29.562Z,101331.94
2022-10-28T17:04:56.171Z,101343.31
2022-10-28T17:07:22.793Z,101339.41
2022-10-28T17:09:49.111Z,101346.69
2022-10-28T17:12:15.530Z,101337.97
2022-10-28T17:14:42.336Z,101349.03
2022-10-28T17:17:08.915Z,101347.13
2022-10-28T17:19:35.375Z,101351.59
2022-10-28T17:22:05.081Z,101341.00
2022-10-28T17:24:33.687Z,101346.56
2022-10-28T17:26:59.985Z,101353.03
2022-10-28T17:29:27.668Z,101351.03
2022-10-28T17:31:54.072Z,101351.44
2022-10-28T17:34:20.430Z,101350.69
2022-10-28T17:36:46.758Z,101356.19
2022-10-28T17:39:17.740Z,101354.53
2022-10-28T17:41:45.099Z,101354.31
2022-10-28T17:44:11.407Z,101350.28
2022-10-28T17:46:37.809Z,101351.94
2022-10-28T17:49:04.178Z,101354.41
2022-10-28T17:51:31.080Z,101355.31
2022-10-28T17:53:57.717Z,101348.84
2022-10-28T17:56:24.019Z,101348.38
2022-10-28T17:58:50.519Z,101353.78
2022-10-28T18:01:17.047Z,101352.47
2022-10-28T18:03:43.387Z,101346.56
2022-10-28T18:06:10.045Z,101350.69
2022-10-28T18:08:36.418Z,101350.19
2022-10-28T18:11:02.880Z,101355.59
2022-10-28T18:13:30.977Z,101351.84
2022-10-28T18:15:57.420Z,101359.22
2022-10-28T18:18:23.985Z,101352.50
2022-10-28T18:20:50.532Z,101355.56
2022-10-28T18:23:16.806Z,101358.59
2022-10-28T18:25:43.188Z,101355.44
2022-10-28T18:28:09.571Z,101348.94
2022-10-28T18:30:36.056Z,101337.88
2022-10-28T18:33:02.426Z,101344.69
2022-10-28T18:35:28.916Z,101343.38
2022-10-28T18:37:56.198Z,101340.75
2022-10-28T18:40:22.870Z,101341.09
2022-10-28T18:42:49.236Z,101346.03
2022-10-28T18:45:15.796Z,101343.09
2022-10-28T18:47:42.356Z,101348.81
2022-10-28T18:50:08.811Z,101354.84
2022-10-28T18:52:35.144Z,101356.22
2022-10-28T18:55:01.441Z,101349.50
2022-10-28T18:57:27.826Z,101350.28
2022-10-28T19:02:44.803Z,101347.66
2022-10-28T19:05:13.833Z,101347.66
2022-10-28T19:07:40.080Z,101349.34
2022-10-28T19:10:06.379Z,101348.50
2022-10-28T19:12:32.993Z,101350.13
2022-10-28T19:14:59.440Z,101347.66
2022-10-28T19:17:25.736Z,101343.31
2022-10-28T19:19:51.978Z,101342.84
2022-10-28T19:22:18.557Z,101343.66
2022-10-28T19:24:44.883Z,101340.94
2022-10-28T19:27:11.207Z,101347.44
2022-10-28T19:29:37.846Z,101342.59
2022-10-28T19:32:04.100Z,101347.19
2022-10-28T19:34:30.359Z,101339.53
2022-10-28T19:36:56.798Z,101343.91
2022-10-28T19:39:23.110Z,101344.72
2022-10-28T19:41:49.446Z,101349.91
2022-10-28T19:44:16.033Z,101345.56
2022-10-28T19:46:42.444Z,101348.25
2022-10-28T19:49:10.481Z,101352.59
2022-10-28T19:51:36.902Z,101351.53
2022-10-28T19:54:03.213Z,101355.06
2022-10-28T19:56:30.995Z,101357.53
2022-10-28T19:58:57.400Z,101354.84
2022-10-28T20:01:23.885Z,101361.28
2022-10-28T20:03:50.278Z,101356.72
2022-10-28T20:06:18.289Z,101360.25
2022-10-28T20:08:46.685Z,101350.22
2022-10-28T20:11:12.996Z,101354.84
2022-10-28T20:13:39.451Z,101356.47
2022-10-28T20:16:06.104Z,101357.31
2022-10-28T20:18:32.548Z,101362.44
2022-10-28T20:20:59.059Z,101362.44
2022-10-28T20:23:25.692Z,101360.56
2022-10-28T20:25:52.189Z,101360.34
2022-10-28T20:28:18.549Z,101371.72
2022-10-28T20:30:44.888Z,101369.03
2022-10-28T20:33:11.183Z,101374.69
2022-10-28T20:35:37.576Z,101368.22
2022-10-28T20:38:04.075Z,101368.22
2022-10-28T20:40:30.391Z,101374.44
2022-10-28T20:42:57.260Z,101375.59
2022-10-28T20:45:23.892Z,101374.44
2022-10-28T20:47:50.195Z,101373.97
2022-10-28T20:50:16.544Z,101377.50
2022-10-28T20:52:42.824Z,101376.66
2022-10-28T20:55:09.162Z,101378.31
2022-10-28T20:57:35.485Z,101379.97
2022-10-28T21:00:01.772Z,101379.69
2022-10-28T21:02:28.526Z,101381.59
2022-10-28T21:04:54.985Z,101380.53
2022-10-28T21:07:21.308Z,101379.69
2022-10-28T21:09:47.756Z,101378.66
2022-10-28T21:12:14.034Z,101381.38
2022-10-28T21:14:40.263Z,101381.09
2022-10-28T21:17:06.743Z,101384.41
2022-10-28T21:19:33.553Z,101381.69
2022-10-28T21:21:59.892Z,101383.31
2022-10-28T21:24:26.422Z,101382.25
2022-10-28T21:26:52.720Z,101386.47
2022-10-28T21:29:18.973Z,101381.38
2022-10-28T21:31:45.241Z,101380.06
2022-10-28T21:34:11.692Z,101378.50
2022-10-28T21:36:39.033Z,101373.97
2022-10-28T21:39:05.303Z,101385.31
2022-10-28T21:41:31.612Z,101382.03
2022-10-28T21:43:58.008Z,101385.78
2022-10-28T21:46:24.313Z,101381.19
2022-10-28T21:48:50.747Z,101383.59
2022-10-28T21:51:17.057Z,101374.63
2022-10-28T21:53:43.608Z,101380.81
2022-10-28T21:56:13.774Z,101382.91
2022-10-28T21:58:42.877Z,101386.94
2022-10-28T22:01:09.296Z,101384.97
2022-10-28T22:03:35.749Z,101391.47
2022-10-28T22:06:02.173Z,101374.63
2022-10-28T22:08:30.158Z,101383.81
2022-10-28T22:10:56.488Z,101378.66
2022-10-28T22:13:22.876Z,101380.53
2022-10-28T22:15:49.266Z,101383.50
2022-10-28T22:18:15.731Z,101379.38
2022-10-28T22:20:42.046Z,101375.28
2022-10-28T22:23:08.361Z,101373.41
2022-10-28T22:25:34.615Z,101377.38
2022-10-28T22:28:00.888Z,101379.31
2022-10-28T22:30:27.291Z,101376.84
2022-10-28T22:32:53.736Z,101380.38
2022-10-28T22:35:20.251Z,101380.03
2022-10-28T22:37:46.800Z,101374.84
2022-10-28T22:40:13.039Z,101381.34
2022-10-28T22:42:39.784Z,101375.34
2022-10-28T22:45:06.048Z,101374.75
2022-10-28T22:47:32.778Z,101379.63
2022-10-28T22:49:59.131Z,101377.72
2022-10-28T22:52:25.389Z,101384.44
2022-10-28T22:54:51.740Z,101388.41
2022-10-28T22:57:17.991Z,101372.41
2022-10-28T22:59:44.347Z,101388.66
2022-10-28T23:02:10.822Z,101381.59
2022-10-28T23:04:37.283Z,101387.50
2022-10-28T23:07:03.818Z,101396.69
2022-10-28T23:09:30.072Z,101389.88
2022-10-28T23:11:56.407Z,101391.75
2022-10-28T23:14:22.682Z,101393.91
2022-10-28T23:16:49.105Z,101387.91
2022-10-28T23:19:15.407Z,101393.56
2022-10-28T23:21:41.731Z,101396.53
2022-10-28T23:24:08.017Z,101394.06
2022-10-28T23:26:35.264Z,101403.00
2022-10-28T23:29:01.709Z,101404.03
2022-10-28T23:31:28.198Z,101402.41
2022-10-28T23:33:54.817Z,101406.44
2022-10-28T23:36:21.130Z,101401.84
2022-10-28T23:38:47.404Z,101405.03
2022-10-28T23:41:13.995Z,101410.44
2022-10-28T23:43:40.250Z,101405.25
2022-10-28T23:46:06.595Z,101420.94
2022-10-28T23:48:33.017Z,101421.97
2022-10-28T23:50:59.373Z,101427.66
2022-10-28T23:53:25.818Z,101437.66
2022-10-28T23:55:52.153Z,101428.94
2022-10-28T23:58:18.495Z,101424.34
